Aérodrome :
LOGIN :

S'inscrire | Disclaimer

   EN    FR    IT 

 










Légende :    VFR   VFR Marginal   IFR   IFR Intensif   IFR Très Intensif
Visi : 
Plafond : 
>= 8 km
>= 3000ft
5 à 8 km
1000 à 3000 ft
1500m à 5 km
500 à 1000 ft
800 à 1500m
200 à 500 ft
< 800m
< 200 ft
Symboles :   Orages  Brouillard  Fortes neiges  Fortes précipitations  Vent > 20 kt
SIGMETs :   Divers  Orages  Givrage  Turbulence  Onde Orograph.  Cendres Volcan.







- Altitude de l'aérodrome : 587 ft
- Code IATA : XCR
- Voir les cartes d'approche


LFOK - Chalons Vatry

DERNIER METAR :
  • 200130Z AUTO 19004KT 8000 SCT028 M01/M02 Q1024 TEMPO 0300 BCFG VV///

METARs EXPIRÉS :
  • 200100Z AUTO 19004KT 9000 NSC M01/M02 Q1024 BECMG 3000 BR
  • 200030Z AUTO 19004KT CAVOK M01/M02 Q1024 BECMG 3000 BR
  • 200000Z AUTO 20005KT CAVOK M01/M02 Q1025 BECMG 3000 BR
  • 192330Z AUTO 19004KT CAVOK M01/M02 Q1025 BECMG 3000 BR
  • 192300Z AUTO 23005KT CAVOK M00/M01 Q1025 TEMPO 0300 BCFG VV///

TAF TAF LFOK
Valide du 20 à 00h jusqu'au 21 à 00h UTC


192300Z 2000/2024 VRB02KT 9999 SCT030
BECMG 2000/2003 3000 BR
PROB30 2003/2005 0300 BCFG VV///
BECMG 2005/2007 20010KT OVC003
BECMG 2011/2013 6000 NSW
TEMPO 2015/2024 1500 DZ OVC003
Pas de NOTAMs connus pour ce terrain.



MET'MAP, la Météo Aéronautique d'un coup d'oeil ! - Copyright ORBIFLY Décembre 2007 - Disclaimer

ORBIFLY MET'MAP TEAM :

Programmation & Développement : Alexandra Zaïnal
Conception & Développement : Baudouin d'Aumeries
Co-Programmation & Développement : Marc-Olivier Méhu
Soutien technique & logistique : Manuel Goepfert

Contact : metmap@orbifly.com




SOURCES & CREDITS :

   NOAA